Terminal Aerodrome Forecast
Issued by NWS Charleston, WV

Current Version | Previous Version | Graphics & Text | Print | Product List | Glossary On
Versions: 1 2 3 4 5 6 7 8 9 10 11 12 13 14 15 16 17 18 19 20 21 22 23
397
FTUS41 KRLX 201431 AAA
TAFHTS
TAF AMD
KHTS 201431Z 2015/2112 VRB03KT 1/4SM FG OVC001
      TEMPO 2015/2016 2SM BR OVC002
     FM201600 VRB03KT 1SM BR OVC005
      TEMPO 2016/2017 4SM BR BKN006
     FM201700 VRB03KT 4SM BR BKN005
     FM201800 VRB03KT P6SM SCT006
     FM201900 VRB03KT P6SM SCT250=

USA.gov is the U.S. government's official web portal to all federal, state and local government web resources and services.